Time;durP1;ratioP1;P1;durP2;ratioP2;P2;SDS_P1;SDS_P2;PMS_P1;PMS_P2;Temp;Humidity;BMP_temperature;BMP_pressure;BME280_temperature;BME280_humidity;BME280_pressure;Samples;Min_cycle;Max_cycle;Signal;HPM_P1;HPM_P2
2023/12/25 00:01:11;;;;;;;3.42;3.03;;;9.00;1.00;;;;;;5063892;28;20240;-77
2023/12/25 00:03:40;;;;;;;3.75;2.80;;;9.00;1.00;;;;;;5064222;28;20312;-79
2023/12/25 00:06:18;;;;;;;3.92;3.03;;;9.10;1.00;;;;;;5058792;28;20711;-77
2023/12/25 00:08:51;;;;;;;4.88;3.42;;;9.10;1.00;;;;;;5065308;28;20707;-78
2023/12/25 00:11:21;;;;;;;4.00;2.90;;;9.20;1.00;;;;;;5063314;28;20255;-77
2023/12/25 00:13:52;;;;;;;3.58;2.50;;;9.20;1.00;;;;;;5062248;28;20297;-78
2023/12/25 00:16:20;;;;;;;3.50;3.20;;;9.20;1.00;;;;;;5055519;28;20220;-78
2023/12/25 00:18:49;;;;;;;4.43;2.70;;;9.20;1.00;;;;;;5066091;28;20266;-78
2023/12/25 00:21:18;;;;;;;3.70;2.83;;;9.30;1.00;;;;;;5061456;28;21017;-78
2023/12/25 00:23:48;;;;;;;3.80;3.17;;;9.30;1.00;;;;;;5063763;28;20777;-78
2023/12/25 00:26:17;;;;;;;4.75;2.90;;;9.30;1.70;;;;;;5065986;28;20225;-78
2023/12/25 00:28:46;;;;;;;3.58;2.70;;;9.30;1.00;;;;;;5056961;28;20224;-78
2023/12/25 00:31:15;;;;;;;3.72;2.75;;;9.30;1.00;;;;;;5063310;28;20324;-77
2023/12/25 00:33:43;;;;;;;3.05;2.75;;;9.40;1.00;;;;;;5064422;28;20225;-77
2023/12/25 00:36:13;;;;;;;3.80;3.22;;;9.40;1.00;;;;;;5066574;28;20216;-78
2023/12/25 00:38:42;;;;;;;5.43;3.08;;;9.40;1.00;;;;;;5074509;28;20309;-78
2023/12/25 00:41:12;;;;;;;4.07;3.17;;;9.40;1.00;;;;;;5065854;28;20310;-78
2023/12/25 00:43:41;;;;;;;4.00;3.40;;;9.50;1.00;;;;;;5061649;28;20307;-78
2023/12/25 00:46:10;;;;;;;4.32;3.88;;;9.50;1.00;;;;;;5060658;28;20295;-77
2023/12/25 00:48:38;;;;;;;3.65;3.33;;;9.50;1.00;;;;;;5052299;28;20233;-78
2023/12/25 00:51:07;;;;;;;4.00;3.55;;;9.60;1.00;;;;;;5041488;28;20311;-78
2023/12/25 00:53:35;;;;;;;4.45;3.80;;;9.60;1.00;;;;;;5045164;28;20232;-77
2023/12/25 00:56:05;;;;;;;5.13;3.60;;;9.50;1.00;;;;;;5048884;28;20312;-77
2023/12/25 00:58:36;;;;;;;6.10;3.80;;;9.60;1.00;;;;;;5050931;28;20233;-78
2023/12/25 01:01:05;;;;;;;4.25;3.72;;;9.60;1.00;;;;;;5063870;28;20220;-78
2023/12/25 01:03:33;;;;;;;4.97;3.90;;;9.70;1.00;;;;;;5059323;28;20743;-78
2023/12/25 01:06:03;;;;;;;4.38;3.95;;;9.70;1.00;;;;;;5060392;28;20225;-79
2023/12/25 01:08:31;;;;;;;3.85;3.30;;;9.70;1.00;;;;;;5065757;28;20242;-80
2023/12/25 01:11:02;;;;;;;5.85;3.60;;;9.70;1.00;;;;;;5062800;28;20223;-77
2023/12/25 01:13:32;;;;;;;6.00;3.85;;;9.70;1.00;;;;;;5055015;28;20219;-78
2023/12/25 01:16:02;;;;;;;6.20;4.03;;;9.70;1.00;;;;;;5063002;28;20224;-78
2023/12/25 01:18:30;;;;;;;4.90;4.40;;;9.70;1.00;;;;;;5072331;28;20719;-78
2023/12/25 01:20:59;;;;;;;4.63;4.20;;;9.70;1.00;;;;;;5057070;28;20289;-78
2023/12/25 01:23:29;;;;;;;4.47;4.00;;;9.60;1.00;;;;;;5063864;28;20273;-78
2023/12/25 01:25:58;;;;;;;6.03;4.80;;;9.70;1.00;;;;;;5058345;28;20228;-78
2023/12/25 01:28:26;;;;;;;5.45;4.90;;;9.60;1.00;;;;;;5062576;28;20228;-78
2023/12/25 01:30:55;;;;;;;6.53;4.80;;;9.60;1.00;;;;;;5061592;28;20239;-79
2023/12/25 01:33:26;;;;;;;5.32;4.88;;;9.70;1.00;;;;;;5063980;28;20230;-78
2023/12/25 01:35:55;;;;;;;5.28;4.72;;;9.70;1.00;;;;;;5063444;28;20220;-78
2023/12/25 01:38:24;;;;;;;5.35;4.30;;;9.60;1.00;;;;;;5063215;28;20247;-79
2023/12/25 01:40:52;;;;;;;5.05;3.90;;;9.60;1.00;;;;;;5064461;28;20228;-78
2023/12/25 01:43:28;;;;;;;4.75;3.97;;;9.70;1.00;;;;;;5056223;28;20298;-77
2023/12/25 01:45:57;;;;;;;4.13;3.72;;;9.70;1.00;;;;;;5058923;28;20219;-78
2023/12/25 01:48:27;;;;;;;4.47;3.53;;;9.70;1.00;;;;;;5061125;28;20244;-78
2023/12/25 01:51:00;;;;;;;3.30;2.67;;;9.70;1.00;;;;;;5043557;28;20220;-78
2023/12/25 01:53:29;;;;;;;4.00;2.40;;;9.70;1.00;;;;;;5061301;28;20311;-78
2023/12/25 01:55:58;;;;;;;1.95;1.75;;;9.70;1.00;;;;;;5059212;28;20236;-78
2023/12/25 01:58:26;;;;;;;2.03;1.83;;;9.70;1.00;;;;;;5059067;28;20299;-78
2023/12/25 02:00:55;;;;;;;1.95;1.70;;;9.80;1.00;;;;;;5068593;28;20914;-78
2023/12/25 02:03:24;;;;;;;2.15;1.67;;;9.80;1.00;;;;;;5066442;28;20212;-77
2023/12/25 02:05:53;;;;;;;2.42;1.40;;;9.80;1.00;;;;;;5069180;28;20338;-78
2023/12/25 02:08:23;;;;;;;1.30;1.20;;;9.80;1.00;;;;;;5054105;28;20358;-78
2023/12/25 02:10:52;;;;;;;2.00;1.35;;;9.80;1.00;;;;;;5087704;28;20293;-79
2023/12/25 02:13:22;;;;;;;1.42;1.00;;;9.80;1.00;;;;;;5063856;28;20289;-79
2023/12/25 02:15:51;;;;;;;1.55;1.05;;;9.80;1.00;;;;;;5065862;28;20236;-78
2023/12/25 02:18:19;;;;;;;1.50;1.00;;;9.80;1.00;;;;;;5075105;28;20225;-78
2023/12/25 02:20:48;;;;;;;3.05;1.00;;;9.70;1.00;;;;;;5062843;28;20247;-79
2023/12/25 02:23:21;;;;;;;3.05;0.93;;;9.80;1.00;;;;;;5064921;28;20223;-79
2023/12/25 02:25:55;;;;;;;3.25;0.90;;;9.60;1.00;;;;;;5082806;28;20252;-77
2023/12/25 02:28:24;;;;;;;1.17;0.88;;;9.60;1.00;;;;;;5061205;28;20590;-77
2023/12/25 02:30:52;;;;;;;1.00;0.90;;;9.60;1.00;;;;;;5065877;28;20231;-78
2023/12/25 02:33:21;;;;;;;1.23;0.93;;;9.60;1.00;;;;;;5064891;28;20644;-77
2023/12/25 02:35:50;;;;;;;0.90;0.80;;;9.60;1.00;;;;;;5062661;28;20231;-77
2023/12/25 02:38:19;;;;;;;1.85;1.10;;;9.60;1.00;;;;;;5057663;28;20243;-78
2023/12/25 02:40:48;;;;;;;2.47;1.20;;;9.60;1.00;;;;;;5057643;28;20224;-79
2023/12/25 02:43:17;;;;;;;1.25;1.00;;;9.60;1.00;;;;;;5073398;28;20216;-78
2023/12/25 02:45:46;;;;;;;2.63;1.38;;;9.60;1.00;;;;;;5067056;28;20251;-77
2023/12/25 02:48:14;;;;;;;1.30;1.10;;;9.70;1.00;;;;;;5065878;28;20282;-77
2023/12/25 02:50:43;;;;;;;1.80;1.40;;;9.60;1.00;;;;;;5065537;28;20667;-78
2023/12/25 02:53:11;;;;;;;3.45;1.33;;;9.70;1.00;;;;;;5064047;28;20220;-77
2023/12/25 02:55:40;;;;;;;2.17;1.30;;;9.70;1.00;;;;;;5066828;28;20227;-78
2023/12/25 02:58:08;;;;;;;1.75;1.27;;;9.60;1.00;;;;;;5060483;28;20323;-79
2023/12/25 03:00:38;;;;;;;2.20;1.30;;;9.60;1.00;;;;;;5054170;28;20247;-77
2023/12/25 03:03:07;;;;;;;3.78;1.30;;;9.60;1.00;;;;;;5046814;28;20704;-77
2023/12/25 03:05:35;;;;;;;1.65;1.00;;;9.60;1.00;;;;;;5045973;28;20256;-77
2023/12/25 03:08:05;;;;;;;3.42;1.10;;;9.70;1.00;;;;;;5044946;28;20212;-79
2023/12/25 03:10:34;;;;;;;1.98;1.23;;;9.60;1.00;;;;;;5053531;28;20222;-79
2023/12/25 03:13:03;;;;;;;2.08;1.08;;;9.70;1.00;;;;;;5042373;28;20225;-77
2023/12/25 03:15:32;;;;;;;3.10;1.10;;;9.60;1.00;;;;;;5043955;28;20366;-77
2023/12/25 03:18:02;;;;;;;1.98;1.00;;;9.60;1.00;;;;;;5050656;28;20232;-78
2023/12/25 03:20:31;;;;;;;2.20;1.10;;;9.50;1.00;;;;;;5064013;28;20254;-78
2023/12/25 03:23:00;;;;;;;3.10;0.93;;;9.60;1.00;;;;;;5062389;28;20228;-77
2023/12/25 03:25:29;;;;;;;2.17;1.00;;;9.60;1.00;;;;;;5064042;28;20227;-77
2023/12/25 03:27:58;;;;;;;1.20;0.70;;;9.60;1.00;;;;;;5066157;28;20224;-78
2023/12/25 03:30:26;;;;;;;0.82;0.70;;;9.50;1.00;;;;;;5067689;28;20232;-78
2023/12/25 03:32:55;;;;;;;2.10;0.98;;;9.60;1.00;;;;;;5070130;28;20747;-78
2023/12/25 03:35:26;;;;;;;4.20;0.93;;;9.60;1.00;;;;;;5064359;28;20234;-77
2023/12/25 03:37:54;;;;;;;3.17;0.90;;;9.60;1.00;;;;;;5065114;28;20224;-78
2023/12/25 03:40:24;;;;;;;2.97;0.70;;;9.60;1.00;;;;;;5058517;28;20303;-79
2023/12/25 03:42:53;;;;;;;1.65;0.75;;;9.60;1.00;;;;;;5066896;28;20230;-78
2023/12/25 03:45:22;;;;;;;4.18;0.80;;;9.60;1.00;;;;;;5064874;28;20228;-78
2023/12/25 03:47:50;;;;;;;2.40;1.02;;;9.60;1.00;;;;;;5066399;28;20232;-78
2023/12/25 03:50:19;;;;;;;1.95;0.70;;;9.60;1.00;;;;;;5065638;28;20242;-77
2023/12/25 03:52:50;;;;;;;2.35;0.90;;;9.60;1.00;;;;;;5060805;28;20225;-77
2023/12/25 03:55:19;;;;;;;3.70;1.20;;;9.50;1.00;;;;;;5062092;28;20715;-75
2023/12/25 03:57:47;;;;;;;2.17;1.00;;;9.50;1.00;;;;;;5070725;28;20658;-78
2023/12/25 04:00:16;;;;;;;2.53;1.02;;;9.50;1.00;;;;;;5061665;28;20540;-77
2023/12/25 04:02:44;;;;;;;2.67;1.13;;;9.50;1.00;;;;;;5058318;28;20770;-78
2023/12/25 04:05:13;;;;;;;1.65;0.73;;;9.50;1.00;;;;;;5065026;28;20251;-77
2023/12/25 04:07:42;;;;;;;2.17;0.70;;;9.60;1.00;;;;;;5063963;28;20239;-77
2023/12/25 04:10:12;;;;;;;3.83;1.10;;;9.60;1.00;;;;;;5063002;28;20725;-77
2023/12/25 04:12:41;;;;;;;1.15;0.70;;;9.60;1.00;;;;;;5065700;28;20314;-77
2023/12/25 04:15:10;;;;;;;5.65;1.15;;;9.50;1.00;;;;;;5064499;28;20216;-77
2023/12/25 04:17:38;;;;;;;5.40;1.13;;;9.50;1.00;;;;;;5063814;28;21092;-78
2023/12/25 04:20:08;;;;;;;1.27;0.70;;;9.50;1.00;;;;;;5078225;28;20913;-77
2023/12/25 04:22:36;;;;;;;2.60;0.90;;;9.50;1.00;;;;;;5062747;28;20241;-78
2023/12/25 04:25:05;;;;;;;3.53;1.10;;;9.50;1.00;;;;;;5052971;28;20355;-77
2023/12/25 04:27:35;;;;;;;2.22;1.05;;;9.40;1.00;;;;;;5062623;28;20311;-77
2023/12/25 04:30:04;;;;;;;3.42;1.13;;;9.40;1.00;;;;;;5065279;28;20236;-79
2023/12/25 04:32:33;;;;;;;2.25;0.90;;;9.40;1.00;;;;;;5066430;28;20220;-77
2023/12/25 04:35:01;;;;;;;3.72;1.20;;;9.40;1.00;;;;;;5054083;28;20770;-78
2023/12/25 04:37:30;;;;;;;2.40;1.20;;;9.50;1.00;;;;;;5080815;28;20262;-78
2023/12/25 04:39:59;;;;;;;4.43;1.10;;;9.40;1.00;;;;;;5064330;28;20346;-77
2023/12/25 04:42:28;;;;;;;4.47;1.20;;;9.40;1.00;;;;;;5066950;28;20319;-78
2023/12/25 04:44:58;;;;;;;2.42;1.05;;;9.40;1.00;;;;;;5063783;28;20216;-77
2023/12/25 04:47:27;;;;;;;4.28;1.10;;;9.30;1.00;;;;;;5080769;28;20306;-76
2023/12/25 04:49:55;;;;;;;4.30;0.90;;;9.30;1.00;;;;;;5063573;28;20224;-78
2023/12/25 04:52:24;;;;;;;3.20;1.00;;;9.30;1.00;;;;;;5059474;28;20228;-77
2023/12/25 04:54:52;;;;;;;8.90;1.10;;;9.30;1.00;;;;;;5064448;28;20584;-77
2023/12/25 04:57:21;;;;;;;2.78;1.15;;;9.30;1.00;;;;;;5059405;28;20234;-78
2023/12/25 04:59:49;;;;;;;2.60;1.02;;;9.30;1.00;;;;;;5062652;28;20483;-78
2023/12/25 05:02:19;;;;;;;4.55;1.60;;;9.40;1.00;;;;;;5057979;28;20220;-77
2023/12/25 05:04:48;;;;;;;4.35;1.00;;;9.40;1.00;;;;;;5062485;28;20231;-78
2023/12/25 05:07:16;;;;;;;3.67;1.20;;;9.40;1.00;;;;;;5062374;28;20224;-78
2023/12/25 05:09:45;;;;;;;2.08;0.90;;;9.50;1.00;;;;;;5059437;28;20224;-77
2023/12/25 05:12:13;;;;;;;3.83;1.10;;;9.50;1.00;;;;;;5044795;28;20295;-77
2023/12/25 05:14:41;;;;;;;3.80;1.30;;;9.50;1.00;;;;;;5079797;28;20754;-78
2023/12/25 05:17:10;;;;;;;2.05;0.95;;;9.40;1.00;;;;;;5061566;28;20380;-81
2023/12/25 05:19:42;;;;;;;3.00;1.23;;;9.40;1.00;;;;;;5055219;28;20225;-77
2023/12/25 05:22:12;;;;;;;4.80;1.10;;;9.30;1.00;;;;;;5066435;28;20331;-78
2023/12/25 05:24:40;;;;;;;2.85;1.10;;;9.40;1.00;;;;;;5065033;28;20220;-77
2023/12/25 05:27:09;;;;;;;3.38;1.48;;;9.40;1.00;;;;;;5058739;28;20251;-79
2023/12/25 05:29:38;;;;;;;3.60;1.27;;;9.50;1.00;;;;;;5063442;28;20223;-78
2023/12/25 05:32:07;;;;;;;3.28;1.35;;;9.50;1.00;;;;;;5063696;28;20226;-78
2023/12/25 05:34:36;;;;;;;1.73;1.33;;;9.50;1.00;;;;;;5066310;28;20301;-78
2023/12/25 05:37:05;;;;;;;4.55;1.52;;;9.40;1.00;;;;;;5060492;28;20297;-78
2023/12/25 05:39:34;;;;;;;2.45;1.30;;;9.50;1.00;;;;;;5071310;28;20257;-77
2023/12/25 05:42:03;;;;;;;3.40;1.35;;;9.50;1.00;;;;;;5073435;28;20228;-76
2023/12/25 05:44:31;;;;;;;3.65;1.35;;;9.50;1.00;;;;;;5071637;28;20223;-78
2023/12/25 05:47:00;;;;;;;3.45;1.33;;;9.50;1.00;;;;;;5073737;28;20352;-78
2023/12/25 05:49:29;;;;;;;3.95;1.40;;;9.60;1.00;;;;;;5067768;28;20894;-78
2023/12/25 05:51:57;;;;;;;3.53;1.30;;;9.50;1.00;;;;;;5067938;28;20318;-79
2023/12/25 05:54:28;;;;;;;4.15;1.48;;;9.50;1.00;;;;;;5059649;28;20224;-78
2023/12/25 05:56:56;;;;;;;3.28;1.30;;;9.50;1.00;;;;;;5049395;28;20212;-78
2023/12/25 05:59:25;;;;;;;4.85;1.40;;;9.40;1.00;;;;;;5065735;28;20228;-78
2023/12/25 06:01:54;;;;;;;4.07;1.35;;;9.30;1.00;;;;;;5074290;28;20298;-76
2023/12/25 06:04:22;;;;;;;5.57;1.63;;;9.20;1.00;;;;;;5069180;28;20312;-78
2023/12/25 06:06:53;;;;;;;3.45;1.50;;;9.20;1.00;;;;;;5051826;28;20285;-76
2023/12/25 06:09:23;;;;;;;3.08;1.52;;;9.20;1.00;;;;;;5062208;28;20255;-78
2023/12/25 06:11:53;;;;;;;4.53;1.80;;;9.10;1.00;;;;;;5064736;28;20262;-78
2023/12/25 06:14:21;;;;;;;3.45;1.70;;;9.20;1.00;;;;;;5062035;28;20263;-79
2023/12/25 06:16:50;;;;;;;4.20;1.88;;;9.10;1.00;;;;;;5067498;28;20648;-78
2023/12/25 06:19:19;;;;;;;4.90;1.80;;;9.20;1.00;;;;;;5065203;28;20240;-78
2023/12/25 06:21:48;;;;;;;3.50;2.00;;;9.10;1.00;;;;;;5066840;28;20224;-78
2023/12/25 06:24:16;;;;;;;3.95;2.00;;;9.10;1.00;;;;;;5062257;28;20323;-78
2023/12/25 06:26:45;;;;;;;5.85;1.92;;;9.20;1.00;;;;;;5060783;28;20235;-78
2023/12/25 06:29:14;;;;;;;4.97;1.70;;;9.20;1.00;;;;;;5059939;28;20231;-78
2023/12/25 06:31:46;;;;;;;3.95;1.83;;;9.20;1.00;;;;;;5066850;28;20323;-79
2023/12/25 06:34:15;;;;;;;4.43;1.83;;;9.20;1.00;;;;;;5066677;28;20236;-79
2023/12/25 06:36:44;;;;;;;2.20;1.55;;;9.20;1.00;;;;;;5062372;28;20220;-77
2023/12/25 06:39:12;;;;;;;6.20;2.20;;;9.10;1.00;;;;;;5061128;28;20293;-77
2023/12/25 06:41:41;;;;;;;6.80;1.50;;;9.20;1.00;;;;;;5064835;28;20319;-78
2023/12/25 06:44:09;;;;;;;3.10;1.48;;;9.20;1.00;;;;;;5065242;28;20719;-78
2023/12/25 06:46:40;;;;;;;2.35;1.35;;;9.20;1.00;;;;;;5058446;28;20243;-78
2023/12/25 06:49:08;;;;;;;3.10;1.45;;;9.30;1.00;;;;;;5066118;28;20319;-78
2023/12/25 06:51:37;;;;;;;3.70;1.40;;;9.20;1.00;;;;;;5060412;28;20220;-78
2023/12/25 06:54:06;;;;;;;3.65;1.30;;;9.20;1.00;;;;;;5064776;28;20224;-78
2023/12/25 06:56:34;;;;;;;5.40;1.48;;;9.10;1.00;;;;;;5056470;28;20240;-77
2023/12/25 06:59:03;;;;;;;2.40;1.35;;;9.20;1.00;;;;;;5065755;28;20220;-79
2023/12/25 07:01:32;;;;;;;2.67;1.23;;;9.30;1.00;;;;;;5060430;28;21875;-77
2023/12/25 07:04:02;;;;;;;3.08;1.30;;;9.30;1.00;;;;;;5060085;28;20224;-80
2023/12/25 07:06:30;;;;;;;2.90;1.30;;;9.20;1.00;;;;;;5065687;28;20220;-79
2023/12/25 07:08:59;;;;;;;3.85;1.92;;;9.30;1.00;;;;;;5075328;28;20224;-78
2023/12/25 07:11:28;;;;;;;3.53;1.30;;;9.30;1.00;;;;;;5065858;28;20225;-78
2023/12/25 07:13:59;;;;;;;4.40;1.50;;;9.30;1.00;;;;;;5064521;28;20224;-77
2023/12/25 07:16:27;;;;;;;3.95;1.50;;;9.30;1.00;;;;;;5064597;28;20762;-77
2023/12/25 07:18:56;;;;;;;4.72;1.45;;;9.30;1.00;;;;;;5056841;28;20216;-78
2023/12/25 07:21:26;;;;;;;7.85;2.17;;;9.30;1.00;;;;;;5065360;28;20224;-78
2023/12/25 07:23:56;;;;;;;4.25;1.30;;;9.40;1.00;;;;;;5065306;28;20228;-78
2023/12/25 07:26:25;;;;;;;3.92;1.38;;;9.40;1.00;;;;;;5069913;28;20284;-78
2023/12/25 07:28:53;;;;;;;3.50;1.25;;;9.30;1.00;;;;;;5067950;28;20224;-78
2023/12/25 07:31:22;;;;;;;5.53;1.60;;;9.40;1.00;;;;;;5024436;28;1113274;-79
2023/12/25 07:33:51;;;;;;;3.90;1.45;;;9.40;1.00;;;;;;5061552;28;20237;-79
2023/12/25 07:36:20;;;;;;;6.05;1.60;;;9.30;1.00;;;;;;5060344;28;20315;-79
2023/12/25 07:38:50;;;;;;;6.47;1.83;;;9.30;1.00;;;;;;5065695;28;20323;-78
2023/12/25 07:41:18;;;;;;;3.72;1.33;;;9.40;1.00;;;;;;5065066;28;20240;-77
2023/12/25 07:43:47;;;;;;;2.85;1.33;;;9.40;1.00;;;;;;5065264;28;20232;-78
2023/12/25 07:46:15;;;;;;;3.33;1.35;;;9.50;1.00;;;;;;5065027;28;20310;-78
2023/12/25 07:48:44;;;;;;;3.90;1.55;;;9.50;1.00;;;;;;5067827;28;20244;-78
2023/12/25 07:51:13;;;;;;;6.43;1.40;;;9.50;1.00;;;;;;5065026;28;20224;-78
2023/12/25 07:53:41;;;;;;;4.38;1.38;;;9.60;1.00;;;;;;5064558;28;20327;-78
2023/12/25 07:56:11;;;;;;;3.72;1.52;;;9.60;1.00;;;;;;5059103;28;20231;-79
2023/12/25 07:58:40;;;;;;;3.20;1.35;;;9.60;1.00;;;;;;5063858;28;20223;-78
2023/12/25 08:01:10;;;;;;;2.30;1.20;;;9.60;1.00;;;;;;5064088;28;20281;-78
2023/12/25 08:03:39;;;;;;;4.63;1.40;;;9.60;1.00;;;;;;5068014;28;20277;-75
2023/12/25 08:06:11;;;;;;;5.95;1.40;;;9.60;1.00;;;;;;5059275;28;20727;-78
2023/12/25 08:08:39;;;;;;;3.40;1.20;;;9.70;1.00;;;;;;5055749;28;20278;-78
2023/12/25 08:11:08;;;;;;;4.13;1.35;;;9.60;1.00;;;;;;5060468;28;20224;-77
2023/12/25 08:13:38;;;;;;;5.38;1.90;;;9.70;1.00;;;;;;5060704;28;20236;-80
2023/12/25 08:16:06;;;;;;;5.18;1.65;;;9.70;1.00;;;;;;5060933;28;20251;-79
2023/12/25 08:18:35;;;;;;;4.00;1.63;;;9.80;1.00;;;;;;5064276;28;20228;-79
2023/12/25 08:21:05;;;;;;;5.60;1.80;;;9.70;1.00;;;;;;5058177;28;20301;-79
2023/12/25 08:23:33;;;;;;;5.70;2.03;;;9.80;1.00;;;;;;5062863;28;20231;-79
2023/12/25 08:26:01;;;;;;;6.63;2.10;;;9.70;1.00;;;;;;5062018;28;20243;-78
2023/12/25 08:28:30;;;;;;;5.80;1.55;;;9.70;1.00;;;;;;5055248;28;20255;-79
2023/12/25 08:31:01;;;;;;;5.60;1.55;;;9.80;1.00;;;;;;5058852;28;20223;-79
2023/12/25 08:33:29;;;;;;;5.47;1.73;;;9.80;1.00;;;;;;5063369;28;20235;-79
2023/12/25 08:35:58;;;;;;;7.28;1.70;;;9.90;1.00;;;;;;5062191;28;20610;-79
2023/12/25 08:38:52;;;;;;;5.88;1.92;;;9.90;1.00;;;;;;5063423;28;20274;-79
2023/12/25 08:41:20;;;;;;;4.10;1.70;;;9.90;1.00;;;;;;5062501;28;20219;-80
2023/12/25 08:43:49;;;;;;;5.22;1.45;;;10.00;1.00;;;;;;5062501;28;20729;-79
2023/12/25 08:46:19;;;;;;;5.75;1.67;;;10.00;1.00;;;;;;5059024;28;20407;-79
2023/12/25 08:48:48;;;;;;;6.47;1.95;;;10.00;1.00;;;;;;5060586;28;20236;-79
2023/12/25 08:51:17;;;;;;;3.60;1.40;;;10.00;1.00;;;;;;5064204;28;20813;-79
2023/12/25 08:53:46;;;;;;;5.75;1.73;;;10.00;1.00;;;;;;5059070;28;20220;-79
2023/12/25 08:56:24;;;;;;;6.75;1.75;;;9.90;1.00;;;;;;5062078;28;20246;-79
2023/12/25 08:58:53;;;;;;;5.40;1.80;;;10.00;1.00;;;;;;5085456;28;20258;-78
2023/12/25 09:01:25;;;;;;;4.00;1.77;;;10.00;1.00;;;;;;5061156;28;20243;-79
2023/12/25 09:03:53;;;;;;;4.07;1.60;;;10.00;1.00;;;;;;5061108;28;20282;-78
2023/12/25 09:06:22;;;;;;;4.15;1.88;;;10.00;1.00;;;;;;5065751;28;20220;-78
2023/12/25 09:08:51;;;;;;;5.55;1.65;;;10.00;1.00;;;;;;5063875;28;20385;-78
2023/12/25 09:11:19;;;;;;;4.57;1.52;;;10.10;1.00;;;;;;5066242;28;20247;-77
2023/12/25 09:13:48;;;;;;;4.43;1.98;;;10.10;1.00;;;;;;5061482;28;20222;-77
2023/12/25 09:16:17;;;;;;;5.55;2.10;;;10.10;1.00;;;;;;5065734;28;20223;-79
2023/12/25 09:18:47;;;;;;;4.45;1.73;;;10.10;1.00;;;;;;5062501;28;20301;-80
2023/12/25 09:21:17;;;;;;;5.70;1.70;;;10.10;1.00;;;;;;5063407;28;20235;-79
2023/12/25 09:23:45;;;;;;;7.72;1.98;;;10.20;1.00;;;;;;5060936;28;20747;-80
2023/12/25 09:26:19;;;;;;;7.88;2.17;;;10.20;1.00;;;;;;5070685;28;20224;-79
2023/12/25 09:28:48;;;;;;;7.00;1.65;;;10.20;1.00;;;;;;5061768;28;20254;-79
2023/12/25 09:31:18;;;;;;;6.63;2.00;;;10.30;1.00;;;;;;5065303;28;20239;-78
2023/12/25 09:33:48;;;;;;;4.07;1.52;;;10.30;1.00;;;;;;5064886;28;20227;-78
2023/12/25 09:36:16;;;;;;;4.00;1.70;;;10.30;1.00;;;;;;5063015;28;20278;-78
2023/12/25 09:38:45;;;;;;;6.25;1.73;;;10.40;1.00;;;;;;5062935;28;20244;-78
2023/12/25 09:41:16;;;;;;;3.17;1.52;;;10.50;1.00;;;;;;5063330;28;20232;-79
2023/12/25 09:43:48;;;;;;;4.07;1.80;;;10.50;1.00;;;;;;5061888;28;20224;-78
2023/12/25 09:46:18;;;;;;;4.43;1.48;;;10.50;1.00;;;;;;5059292;28;20240;-78
2023/12/25 09:48:48;;;;;;;6.82;1.80;;;10.60;1.00;;;;;;5055664;28;20386;-79
2023/12/25 09:51:19;;;;;;;5.13;1.80;;;10.60;1.00;;;;;;5062652;28;20277;-81
2023/12/25 09:53:48;;;;;;;3.58;1.85;;;10.50;1.00;;;;;;5063419;28;20320;-79
2023/12/25 09:56:20;;;;;;;3.65;1.52;;;10.60;1.00;;;;;;5062838;28;20224;-78
2023/12/25 09:58:49;;;;;;;3.58;1.70;;;10.70;1.00;;;;;;5065852;28;20250;-79
2023/12/25 10:01:18;;;;;;;5.80;1.73;;;10.60;1.00;;;;;;5065985;28;20224;-79
2023/12/25 10:03:48;;;;;;;5.45;2.10;;;10.70;1.00;;;;;;5063759;28;20277;-79
2023/12/25 10:06:20;;;;;;;4.50;1.70;;;10.70;1.00;;;;;;5061411;28;20316;-79
2023/12/25 10:08:50;;;;;;;5.20;1.80;;;10.80;1.00;;;;;;5080742;28;20318;-79
2023/12/25 10:11:18;;;;;;;5.25;1.90;;;10.90;1.00;;;;;;5063123;28;21384;-79
2023/12/25 10:13:47;;;;;;;4.72;1.63;;;10.90;1.00;;;;;;5059914;28;20224;-78
2023/12/25 10:16:15;;;;;;;5.25;1.80;;;10.90;1.00;;;;;;5057769;28;20313;-79
2023/12/25 10:18:44;;;;;;;6.07;2.25;;;10.90;1.00;;;;;;5062586;28;20235;-80
2023/12/25 10:21:14;;;;;;;5.10;2.20;;;10.80;1.00;;;;;;5065689;28;20243;-77
2023/12/25 10:23:44;;;;;;;4.93;1.88;;;10.80;1.00;;;;;;5058696;28;20224;-79
2023/12/25 10:26:12;;;;;;;8.55;1.85;;;10.80;1.00;;;;;;5065830;28;20320;-79
2023/12/25 10:28:41;;;;;;;4.63;1.65;;;10.80;1.00;;;;;;5065090;28;20228;-79
2023/12/25 10:31:10;;;;;;;4.70;2.00;;;10.70;1.00;;;;;;5069812;28;20703;-78
2023/12/25 10:33:39;;;;;;;5.38;2.00;;;10.60;1.00;;;;;;5058209;28;20244;-78
2023/12/25 10:36:09;;;;;;;5.82;1.98;;;10.60;1.00;;;;;;5064867;28;20654;-79
2023/12/25 10:38:42;;;;;;;4.68;1.60;;;10.50;1.00;;;;;;5066212;28;20335;-78
2023/12/25 10:41:22;;;;;;;5.13;1.77;;;10.60;1.00;;;;;;5091643;28;20235;-78
2023/12/25 10:43:53;;;;;;;4.47;1.67;;;10.60;1.00;;;;;;5062699;28;20216;-77
2023/12/25 10:46:24;;;;;;;6.28;2.10;;;10.60;1.00;;;;;;5074393;28;20220;-80
2023/12/25 10:48:53;;;;;;;4.53;1.80;;;10.70;1.00;;;;;;5092925;28;20224;-79
2023/12/25 10:51:29;;;;;;;8.73;2.15;;;10.70;1.00;;;;;;5068912;28;20298;-80
2023/12/25 10:54:00;;;;;;;5.03;1.83;;;10.80;1.00;;;;;;5093487;28;20216;-79
2023/12/25 10:56:33;;;;;;;6.55;2.00;;;10.80;1.00;;;;;;5075838;28;20255;-80
2023/12/25 10:59:08;;;;;;;4.60;1.88;;;10.80;1.00;;;;;;5065590;28;20514;-78
2023/12/25 11:01:39;;;;;;;8.18;2.10;;;11.00;1.00;;;;;;5066953;28;20216;-79
2023/12/25 11:04:08;;;;;;;3.90;1.80;;;11.10;1.00;;;;;;5065833;28;20241;-79
2023/12/25 11:06:36;;;;;;;5.15;1.70;;;11.20;1.00;;;;;;5060469;28;20224;-78
2023/12/25 11:09:07;;;;;;;6.40;2.00;;;11.20;1.00;;;;;;5064987;28;20252;-80
2023/12/25 11:11:35;;;;;;;3.85;1.65;;;11.10;1.00;;;;;;5062616;28;20233;-79
2023/12/25 11:14:06;;;;;;;7.15;2.00;;;11.00;1.00;;;;;;5057953;28;20238;-77
2023/12/25 11:16:35;;;;;;;6.88;2.13;;;11.00;1.00;;;;;;5065089;28;20231;-79
2023/12/25 11:19:05;;;;;;;7.20;2.17;;;11.00;1.00;;;;;;5065131;28;20220;-79
2023/12/25 11:21:34;;;;;;;4.20;2.00;;;11.00;1.00;;;;;;5064219;28;20228;-78
2023/12/25 11:24:04;;;;;;;4.18;2.00;;;11.20;1.00;;;;;;5067481;28;20220;-79
2023/12/25 11:26:34;;;;;;;6.13;2.40;;;11.20;1.00;;;;;;5065824;28;20236;-79
2023/12/25 11:29:06;;;;;;;5.30;1.90;;;11.10;1.00;;;;;;5063116;28;20232;-79
2023/12/25 11:31:43;;;;;;;5.70;2.55;;;11.10;1.00;;;;;;5055058;28;20233;-79
2023/12/25 11:34:19;;;;;;;5.80;2.30;;;11.30;1.00;;;;;;5073153;28;20219;-78
2023/12/25 11:36:51;;;;;;;6.05;2.25;;;11.20;1.00;;;;;;5057983;28;20225;-79
2023/12/25 11:39:23;;;;;;;5.72;2.15;;;11.20;1.00;;;;;;5063408;28;20221;-79
2023/12/25 11:41:53;;;;;;;6.50;2.17;;;11.20;1.00;;;;;;5064342;28;20231;-79
2023/12/25 11:44:31;;;;;;;5.43;2.15;;;11.30;1.00;;;;;;5058486;28;20691;-79
2023/12/25 11:47:02;;;;;;;5.32;2.15;;;11.30;1.00;;;;;;5061188;28;20224;-79
2023/12/25 11:49:33;;;;;;;10.27;2.22;;;11.40;1.00;;;;;;5061087;28;20225;-79
2023/12/25 11:52:03;;;;;;;6.03;2.03;;;11.40;1.00;;;;;;5060991;28;20225;-79
2023/12/25 11:54:33;;;;;;;4.43;1.77;;;11.40;1.00;;;;;;5063816;28;20886;-79
2023/12/25 11:57:17;;;;;;;6.30;1.75;;;11.40;1.00;;;;;;5054358;28;20227;-80
2023/12/25 11:59:46;;;;;;;5.82;1.48;;;11.30;1.00;;;;;;5061413;28;20231;-79
2023/12/25 12:02:17;;;;;;;3.53;1.48;;;10.90;1.00;;;;;;5056658;28;20220;-79
2023/12/25 12:04:46;;;;;;;5.63;1.50;;;9.70;1.00;;;;;;5062093;28;20722;-78
2023/12/25 12:07:16;;;;;;;8.25;1.50;;;9.30;1.00;;;;;;5058165;28;20232;-79
2023/12/25 12:09:45;;;;;;;5.13;1.35;;;9.10;1.00;;;;;;5062849;28;20220;-78
2023/12/25 12:12:15;;;;;;;4.25;1.00;;;8.90;1.00;;;;;;5058471;28;20212;-78
2023/12/25 12:14:44;;;;;;;4.18;1.27;;;8.70;1.00;;;;;;5062429;28;20234;-78
2023/12/25 12:17:14;;;;;;;3.85;1.30;;;8.60;1.00;;;;;;5059893;28;20273;-78
2023/12/25 12:19:43;;;;;;;5.88;1.40;;;8.50;1.00;;;;;;5056979;28;20310;-79
2023/12/25 12:22:13;;;;;;;3.95;1.30;;;8.40;1.00;;;;;;5060004;28;20224;-78
2023/12/25 12:24:41;;;;;;;3.38;1.33;;;8.40;1.00;;;;;;5060570;28;20305;-78
2023/12/25 12:27:11;;;;;;;3.38;1.15;;;8.40;1.00;;;;;;5065448;28;20417;-78
2023/12/25 12:29:42;;;;;;;6.13;1.42;;;8.40;1.00;;;;;;5063200;28;20259;-77
2023/12/25 12:32:11;;;;;;;6.13;1.85;;;8.30;1.00;;;;;;5060540;28;20224;-75
2023/12/25 12:34:39;;;;;;;4.15;1.42;;;8.50;1.00;;;;;;5068073;28;20331;-75
2023/12/25 12:37:10;;;;;;;6.78;1.60;;;8.50;1.00;;;;;;5060985;28;20212;-78
2023/12/25 12:39:39;;;;;;;6.25;1.60;;;8.50;1.00;;;;;;5064708;28;20219;-77
2023/12/25 12:42:12;;;;;;;4.22;1.40;;;8.50;1.00;;;;;;5066999;28;20216;-78
2023/12/25 12:44:48;;;;;;;4.95;1.50;;;8.60;1.00;;;;;;5065008;28;20722;-78
2023/12/25 12:47:17;;;;;;;3.33;1.38;;;8.60;1.00;;;;;;5049248;28;20228;-78
2023/12/25 12:49:45;;;;;;;4.18;1.23;;;8.50;1.00;;;;;;5054168;28;20224;-79
2023/12/25 12:52:14;;;;;;;3.85;1.30;;;8.60;1.00;;;;;;5061100;28;20231;-79
2023/12/25 12:54:43;;;;;;;5.53;1.67;;;8.60;1.00;;;;;;5060000;28;20237;-80
2023/12/25 12:57:11;;;;;;;2.85;1.60;;;8.70;1.00;;;;;;5064957;28;20243;-79
2023/12/25 12:59:42;;;;;;;5.68;1.58;;;8.60;1.00;;;;;;5057116;28;20320;-78
2023/12/25 13:02:10;;;;;;;4.60;1.42;;;8.70;1.00;;;;;;5063693;28;20572;-78
2023/12/25 13:04:39;;;;;;;3.60;1.15;;;8.70;1.00;;;;;;5064861;28;21083;-78
2023/12/25 13:07:08;;;;;;;3.80;1.30;;;8.70;1.00;;;;;;5061742;28;20225;-78
2023/12/25 13:09:37;;;;;;;3.85;1.50;;;8.70;1.00;;;;;;5051423;28;20234;-79
2023/12/25 13:12:07;;;;;;;5.25;1.40;;;8.60;1.00;;;;;;5061239;28;20228;-79
2023/12/25 13:14:35;;;;;;;6.30;1.50;;;8.50;1.00;;;;;;5063025;28;20260;-78
2023/12/25 13:17:06;;;;;;;5.13;1.60;;;8.50;1.00;;;;;;5062220;28;20235;-77